createdAt,value
2022-12-26T00:01:48.186Z,70.85
2022-12-26T00:04:50.678Z,59.33
2022-12-26T00:07:03.967Z,72.82
2022-12-26T00:09:32.514Z,64.95
2022-12-26T00:11:59.513Z,49.22
2022-12-26T00:14:26.720Z,64.22
2022-12-26T00:16:53.643Z,65.65
2022-12-26T00:19:20.427Z,55.55
2022-12-26T00:21:47.778Z,76.28
2022-12-26T00:24:19.677Z,63.85
2022-12-26T00:26:46.557Z,76.63
2022-12-26T00:29:13.370Z,50.00
2022-12-26T00:31:40.574Z,64.32
2022-12-26T00:34:07.370Z,50.08
2022-12-26T00:36:34.224Z,47.65
2022-12-26T00:39:02.884Z,54.63
2022-12-26T00:41:31.581Z,55.22
2022-12-26T00:43:58.712Z,49.53
2022-12-26T00:46:27.081Z,39.25
2022-12-26T00:48:54.099Z,51.83
2022-12-26T00:51:21.281Z,50.40
2022-12-26T00:53:48.261Z,45.40
2022-12-26T00:56:16.103Z,47.55
2022-12-26T00:58:44.353Z,44.47
2022-12-26T01:01:16.068Z,50.92
2022-12-26T01:03:44.040Z,34.40
2022-12-26T01:06:11.455Z,45.05
2022-12-26T01:08:38.595Z,43.33
2022-12-26T01:11:07.595Z,47.72
2022-12-26T01:13:35.860Z,49.58
2022-12-26T01:16:05.330Z,58.92
2022-12-26T01:18:33.445Z,57.13
2022-12-26T01:21:01.836Z,54.22
2022-12-26T01:23:29.008Z,57.83
2022-12-26T01:26:19.173Z,38.50
2022-12-26T01:28:42.736Z,52.67
2022-12-26T01:31:12.062Z,47.25
2022-12-26T01:33:39.134Z,56.25
2022-12-26T01:36:06.414Z,59.53
2022-12-26T01:38:33.194Z,53.05
2022-12-26T01:41:20.110Z,48.33
2022-12-26T01:43:54.259Z,43.65
2022-12-26T01:46:28.201Z,49.38
2022-12-26T01:48:56.907Z,45.67
2022-12-26T01:51:26.968Z,45.97
2022-12-26T01:54:37.948Z,28.38
2022-12-26T01:56:47.415Z,34.20
2022-12-26T01:59:19.147Z,41.10
2022-12-26T02:01:51.434Z,32.72
2022-12-26T02:04:43.325Z,36.70
2022-12-26T02:07:10.363Z,21.55
2022-12-26T02:09:38.035Z,34.08
2022-12-26T02:12:36.266Z,31.55
2022-12-26T02:14:59.118Z,28.27
2022-12-26T02:17:28.109Z,35.97
2022-12-26T02:20:04.083Z,28.80
2022-12-26T02:22:50.871Z,30.65
2022-12-26T02:25:38.639Z,25.33
2022-12-26T02:28:47.090Z,21.45
2022-12-26T02:31:19.454Z,22.55
2022-12-26T02:33:59.221Z,33.10
2022-12-26T02:36:44.152Z,27.40
2022-12-26T02:39:44.030Z,25.15
2022-12-26T02:42:22.960Z,31.30
2022-12-26T02:45:12.992Z,17.33
2022-12-26T02:47:52.737Z,18.20
2022-12-26T02:50:48.238Z,21.20
2022-12-26T02:53:46.647Z,16.50
2022-12-26T02:56:41.475Z,19.00
2022-12-26T02:59:56.469Z,16.13
2022-12-26T03:02:47.798Z,14.68
2022-12-26T03:05:40.694Z,15.55
2022-12-26T03:08:32.834Z,18.10
2022-12-26T03:11:18.753Z,15.02
2022-12-26T03:13:47.991Z,17.77
2022-12-26T03:16:34.940Z,18.15
2022-12-26T03:19:06.312Z,18.02
2022-12-26T03:21:40.664Z,22.63
2022-12-26T03:24:10.867Z,17.92
2022-12-26T03:26:43.864Z,24.77
2022-12-26T03:29:31.718Z,17.05
2022-12-26T03:32:00.934Z,26.67
2022-12-26T03:34:28.741Z,27.55
2022-12-26T03:37:47.769Z,24.77
2022-12-26T03:40:44.016Z,32.47
2022-12-26T03:43:39.486Z,24.05
2022-12-26T03:46:35.306Z,31.92
2022-12-26T03:49:27.753Z,30.20
2022-12-26T03:52:20.600Z,27.23
2022-12-26T03:55:15.261Z,26.67
2022-12-26T03:58:09.228Z,25.17
2022-12-26T04:00:56.620Z,22.20
2022-12-26T04:06:36.042Z,26.30
2022-12-26T04:09:27.747Z,33.67
2022-12-26T04:12:17.625Z,29.33
2022-12-26T04:15:06.889Z,34.67
2022-12-26T04:17:57.982Z,35.75
2022-12-26T04:20:29.838Z,32.08
2022-12-26T04:23:21.114Z,31.67
2022-12-26T04:26:13.965Z,36.83
2022-12-26T04:29:00.959Z,40.72
2022-12-26T04:31:52.179Z,39.78
2022-12-26T04:34:46.527Z,40.58
2022-12-26T04:37:40.158Z,36.58
2022-12-26T04:40:30.972Z,35.10
2022-12-26T04:43:49.347Z,33.83
2022-12-26T04:46:07.189Z,30.00
2022-12-26T04:49:01.211Z,23.33
2022-12-26T04:51:28.281Z,33.97
2022-12-26T04:53:55.247Z,27.98
2022-12-26T04:56:22.299Z,36.33
2022-12-26T04:58:49.146Z,28.33
2022-12-26T05:01:36.535Z,29.27
2022-12-26T05:04:22.430Z,19.27
2022-12-26T05:07:07.862Z,22.48
2022-12-26T05:09:35.236Z,19.15
2022-12-26T05:12:03.090Z,23.85
2022-12-26T05:14:31.705Z,17.90
2022-12-26T05:17:18.582Z,18.27
2022-12-26T05:20:04.054Z,24.95
2022-12-26T05:22:52.643Z,15.25
2022-12-26T05:25:42.090Z,14.80
2022-12-26T05:28:28.858Z,11.02
2022-12-26T05:30:56.042Z,11.98
2022-12-26T05:33:43.001Z,14.80
2022-12-26T05:36:10.682Z,10.93
2022-12-26T05:38:37.820Z,42.45
2022-12-26T05:41:05.605Z,11.52
2022-12-26T05:43:32.517Z,13.65
2022-12-26T05:45:59.530Z,12.27
2022-12-26T05:48:27.863Z,19.95
2022-12-26T05:50:58.583Z,9.82
2022-12-26T05:53:25.338Z,9.05
2022-12-26T05:55:52.101Z,5.40
2022-12-26T05:58:18.851Z,11.00
2022-12-26T06:00:45.776Z,19.13
2022-12-26T06:03:12.929Z,35.00
2022-12-26T06:05:41.623Z,15.00
2022-12-26T06:08:08.377Z,19.15
2022-12-26T06:10:35.813Z,11.63
2022-12-26T06:13:03.056Z,9.43
2022-12-26T06:15:29.927Z,13.35
2022-12-26T06:17:57.298Z,9.20
2022-12-26T06:20:24.164Z,27.15
2022-12-26T06:22:52.286Z,9.70
2022-12-26T06:25:19.120Z,16.27
2022-12-26T06:27:45.980Z,33.38
2022-12-26T06:30:13.287Z,14.80
2022-12-26T06:32:40.013Z,11.60
2022-12-26T06:35:07.236Z,15.98
2022-12-26T06:37:34.300Z,10.18
2022-12-26T06:40:02.872Z,12.82
2022-12-26T06:42:31.871Z,30.35
2022-12-26T06:44:58.857Z,41.55
2022-12-26T06:47:25.640Z,5.97
2022-12-26T06:49:52.487Z,24.15
2022-12-26T06:52:19.349Z,7.07
2022-12-26T06:54:46.140Z,7.63
2022-12-26T06:57:14.354Z,11.82
2022-12-26T06:59:41.191Z,8.50
2022-12-26T07:02:09.935Z,12.00
2022-12-26T07:04:36.849Z,9.32
2022-12-26T07:07:03.989Z,16.35
2022-12-26T07:09:33.956Z,11.10
2022-12-26T07:12:01.299Z,8.70
2022-12-26T07:14:29.748Z,9.85
2022-12-26T07:16:56.648Z,59.03
2022-12-26T07:19:23.482Z,8.23
2022-12-26T07:21:50.486Z,13.27
2022-12-26T07:24:19.742Z,12.48
2022-12-26T07:26:47.415Z,22.10
2022-12-26T07:29:14.981Z,12.18
2022-12-26T07:31:43.378Z,8.18
2022-12-26T07:34:10.362Z,11.35
2022-12-26T07:36:37.165Z,39.72
2022-12-26T07:39:04.880Z,9.57
2022-12-26T07:41:50.863Z,17.33
2022-12-26T07:44:17.797Z,172.23
2022-12-26T07:46:46.808Z,15.63
2022-12-26T07:49:13.670Z,15.65
2022-12-26T07:51:41.664Z,13.40
2022-12-26T07:54:11.402Z,12.32
2022-12-26T07:56:38.825Z,6.07
2022-12-26T07:59:05.871Z,10.40
2022-12-26T08:01:32.816Z,11.18
2022-12-26T08:04:01.437Z,18.13
2022-12-26T08:06:28.435Z,17.23
2022-12-26T08:08:55.622Z,37.10
2022-12-26T08:11:23.952Z,11.52
2022-12-26T08:13:50.890Z,10.73
2022-12-26T08:16:21.313Z,14.75
2022-12-26T08:18:48.236Z,9.85
2022-12-26T08:21:16.757Z,45.83
2022-12-26T08:23:43.893Z,20.00
2022-12-26T08:26:13.088Z,18.23
2022-12-26T08:28:42.113Z,33.35
2022-12-26T08:31:10.760Z,33.42
2022-12-26T08:33:37.607Z,44.42
2022-12-26T08:36:05.428Z,22.95
2022-12-26T08:38:33.998Z,21.58
2022-12-26T08:41:01.362Z,33.05
2022-12-26T08:44:03.507Z,15.55
2022-12-26T08:46:15.505Z,23.88
2022-12-26T08:48:42.746Z,7.68
2022-12-26T08:51:13.833Z,21.15
2022-12-26T08:53:43.068Z,12.55
2022-12-26T08:56:13.601Z,13.38
2022-12-26T08:58:40.582Z,12.50
2022-12-26T09:01:10.258Z,11.27
2022-12-26T09:03:38.291Z,12.30
2022-12-26T09:06:06.561Z,13.18
2022-12-26T09:08:35.084Z,16.95
2022-12-26T09:11:04.622Z,4.88
2022-12-26T09:13:32.005Z,58.28
2022-12-26T09:16:05.864Z,21.30
2022-12-26T09:18:32.883Z,10.40
2022-12-26T09:21:01.382Z,11.23
2022-12-26T09:23:29.219Z,7.80
2022-12-26T09:26:05.390Z,11.05
2022-12-26T09:28:32.555Z,22.63
2022-12-26T09:31:00.276Z,13.40
2022-12-26T09:33:28.307Z,6.18
2022-12-26T09:35:59.701Z,15.95
2022-12-26T09:38:31.559Z,8.07
2022-12-26T09:41:15.634Z,8.77
2022-12-26T09:43:54.841Z,7.32
2022-12-26T09:46:31.644Z,28.30
2022-12-26T09:49:03.512Z,12.43
2022-12-26T09:51:33.565Z,12.60
2022-12-26T09:54:04.992Z,13.18
2022-12-26T09:57:01.729Z,9.50
2022-12-26T09:59:26.903Z,24.60
2022-12-26T10:01:54.133Z,15.65
2022-12-26T10:04:29.170Z,36.22
2022-12-26T10:07:11.687Z,10.40
2022-12-26T10:12:29.155Z,11.93
2022-12-26T10:15:03.478Z,19.45
2022-12-26T10:17:40.456Z,10.48
2022-12-26T10:20:21.844Z,10.15
2022-12-26T10:23:36.888Z,12.50
2022-12-26T10:26:09.894Z,10.60
2022-12-26T10:28:41.871Z,8.02
2022-12-26T10:31:19.223Z,7.03
2022-12-26T10:33:49.986Z,12.20
2022-12-26T10:36:23.546Z,16.98
2022-12-26T10:38:54.426Z,9.30
2022-12-26T10:41:26.036Z,16.15
2022-12-26T10:43:54.885Z,11.73
2022-12-26T10:46:40.002Z,11.95
2022-12-26T10:49:11.155Z,6.75
2022-12-26T10:51:38.294Z,7.47
2022-12-26T10:54:13.779Z,13.40
2022-12-26T10:56:40.808Z,6.07
2022-12-26T10:59:17.094Z,9.85
2022-12-26T11:01:47.952Z,12.68
2022-12-26T11:04:31.154Z,8.02
2022-12-26T11:07:11.327Z,7.20
2022-12-26T11:09:40.827Z,7.28
2022-12-26T11:12:20.032Z,15.30
2022-12-26T11:14:49.035Z,9.82
2022-12-26T11:17:26.559Z,5.78
2022-12-26T11:20:21.548Z,5.97
2022-12-26T11:22:48.525Z,10.60
2022-12-26T11:25:18.523Z,10.43
2022-12-26T11:27:49.574Z,25.63
2022-12-26T11:30:22.293Z,10.23
2022-12-26T11:32:52.362Z,18.08
2022-12-26T11:35:21.894Z,10.40
2022-12-26T11:37:52.585Z,6.03
2022-12-26T11:40:23.215Z,5.60
2022-12-26T11:42:53.212Z,7.38
2022-12-26T11:45:25.291Z,7.63
2022-12-26T11:47:54.662Z,9.48
2022-12-26T11:50:25.247Z,8.45
2022-12-26T11:53:03.845Z,8.73
2022-12-26T11:55:33.638Z,7.50
2022-12-26T11:58:10.652Z,3.17
2022-12-26T12:00:40.853Z,10.23
2022-12-26T12:03:12.494Z,6.57
2022-12-26T12:05:47.886Z,10.55
2022-12-26T12:08:30.649Z,15.98
2022-12-26T12:11:17.255Z,11.63
2022-12-26T12:14:08.337Z,10.63
2022-12-26T12:16:46.700Z,6.38
2022-12-26T12:19:42.667Z,11.98
2022-12-26T12:22:29.621Z,9.18
2022-12-26T12:25:11.435Z,6.57
2022-12-26T12:27:44.061Z,7.22
2022-12-26T12:30:18.052Z,6.72
2022-12-26T12:33:08.628Z,16.45
2022-12-26T12:35:49.845Z,6.90
2022-12-26T12:38:29.925Z,7.68
2022-12-26T12:41:11.270Z,11.30
2022-12-26T12:43:49.124Z,18.02
2022-12-26T12:46:27.989Z,11.80
2022-12-26T12:49:13.496Z,11.15
2022-12-26T12:51:46.570Z,8.38
2022-12-26T12:54:46.789Z,7.63
2022-12-26T12:57:23.133Z,9.85
2022-12-26T13:00:01.877Z,10.98
2022-12-26T13:02:32.815Z,7.93
2022-12-26T13:05:14.771Z,6.70
2022-12-26T13:07:48.635Z,9.77
2022-12-26T13:10:19.875Z,10.93
2022-12-26T13:12:49.771Z,6.07
2022-12-26T13:15:27.130Z,8.07
2022-12-26T13:18:00.105Z,5.03
2022-12-26T13:20:34.495Z,7.85
2022-12-26T13:23:24.788Z,8.07
2022-12-26T13:26:04.887Z,11.57
2022-12-26T13:28:39.281Z,15.48
2022-12-26T13:31:06.689Z,6.65
2022-12-26T13:33:34.775Z,7.75
2022-12-26T13:36:04.995Z,10.95
2022-12-26T13:39:09.614Z,3.67
2022-12-26T13:41:55.669Z,7.18
2022-12-26T13:44:27.740Z,7.28
2022-12-26T13:46:56.895Z,8.05
2022-12-26T13:49:29.601Z,7.47
2022-12-26T13:52:00.244Z,4.20
2022-12-26T13:54:28.866Z,7.30
2022-12-26T13:57:32.369Z,5.18
2022-12-26T14:00:22.178Z,7.93
2022-12-26T14:03:18.442Z,8.20
2022-12-26T14:06:18.583Z,4.15
2022-12-26T14:09:02.244Z,8.85
2022-12-26T14:11:43.829Z,8.38
2022-12-26T14:16:54.408Z,5.72
2022-12-26T14:19:36.271Z,7.45
2022-12-26T14:22:11.735Z,5.28
2022-12-26T14:24:52.020Z,7.57
2022-12-26T14:27:28.913Z,9.07
2022-12-26T14:30:06.517Z,6.40
2022-12-26T14:32:43.432Z,6.30
2022-12-26T14:35:23.482Z,13.90
2022-12-26T14:37:59.861Z,10.35
2022-12-26T14:40:34.330Z,8.30
2022-12-26T14:43:12.013Z,8.75
2022-12-26T14:45:45.268Z,11.60
2022-12-26T14:48:48.779Z,6.07
2022-12-26T14:51:39.224Z,10.50
2022-12-26T14:54:43.155Z,9.73
2022-12-26T14:57:45.871Z,5.72
2022-12-26T15:00:34.467Z,3.83
2022-12-26T15:03:40.605Z,7.80
2022-12-26T15:06:46.285Z,7.10
2022-12-26T15:09:39.724Z,10.05
2022-12-26T15:15:31.865Z,9.95
2022-12-26T15:18:31.554Z,5.90
2022-12-26T15:21:43.407Z,5.75
2022-12-26T15:25:18.834Z,11.05
2022-12-26T15:28:21.343Z,5.45
2022-12-26T15:31:07.088Z,9.02
2022-12-26T15:33:40.444Z,4.85
2022-12-26T15:36:20.233Z,5.57
2022-12-26T15:38:56.184Z,5.50
2022-12-26T15:41:34.230Z,3.78
2022-12-26T15:44:19.696Z,10.60
2022-12-26T15:46:52.657Z,7.22
2022-12-26T15:49:38.371Z,11.45
2022-12-26T15:52:14.492Z,5.10
2022-12-26T15:55:16.380Z,7.20
2022-12-26T15:57:53.229Z,12.98
2022-12-26T16:00:22.633Z,12.77
2022-12-26T16:03:15.667Z,7.43
2022-12-26T16:05:53.085Z,5.95
2022-12-26T16:08:53.706Z,7.63
2022-12-26T16:11:22.650Z,6.70
2022-12-26T16:13:52.655Z,8.77
2022-12-26T16:16:31.716Z,10.35
2022-12-26T16:19:16.380Z,4.30
2022-12-26T16:22:05.366Z,8.75
2022-12-26T16:24:35.650Z,7.47
2022-12-26T16:27:05.878Z,13.68
2022-12-26T16:29:33.146Z,7.20
2022-12-26T16:32:06.157Z,6.35
2022-12-26T16:34:36.639Z,7.60
2022-12-26T16:37:04.249Z,8.98
2022-12-26T16:39:31.160Z,4.70
2022-12-26T16:42:04.256Z,7.07
2022-12-26T16:44:36.697Z,8.68
2022-12-26T16:47:06.796Z,10.07
2022-12-26T16:49:36.062Z,7.43
2022-12-26T16:52:03.121Z,12.32
2022-12-26T16:54:37.719Z,11.32
2022-12-26T16:57:10.108Z,8.38
2022-12-26T16:59:49.618Z,8.65
2022-12-26T17:02:22.448Z,4.90
2022-12-26T17:05:06.806Z,8.15
2022-12-26T17:07:39.336Z,8.48
2022-12-26T17:10:12.311Z,13.25
2022-12-26T17:12:40.994Z,14.90
2022-12-26T17:15:09.022Z,3.53
2022-12-26T17:17:37.802Z,5.00
2022-12-26T17:20:35.766Z,7.90
2022-12-26T17:23:34.279Z,9.65
2022-12-26T17:26:20.297Z,12.15
2022-12-26T17:28:47.498Z,13.10
2022-12-26T17:31:19.621Z,7.18
2022-12-26T17:33:48.428Z,5.15
2022-12-26T17:39:12.884Z,10.05
2022-12-26T17:41:50.710Z,6.70
2022-12-26T17:44:37.812Z,7.45
2022-12-26T17:47:14.974Z,7.65
2022-12-26T17:49:41.876Z,13.75
2022-12-26T17:52:12.336Z,9.85
2022-12-26T17:54:39.429Z,10.07
2022-12-26T17:57:06.441Z,7.82
2022-12-26T17:59:33.389Z,8.30
2022-12-26T18:02:00.333Z,7.05
2022-12-26T18:04:27.318Z,7.65
2022-12-26T18:06:54.302Z,10.70
2022-12-26T18:09:26.598Z,6.82
2022-12-26T18:11:54.482Z,4.57
2022-12-26T18:14:22.042Z,9.98
2022-12-26T18:16:51.638Z,5.28
2022-12-26T18:19:19.698Z,10.27
2022-12-26T18:21:47.047Z,6.80
2022-12-26T18:24:14.204Z,3.53
2022-12-26T18:26:42.570Z,3.50
2022-12-26T18:29:10.613Z,9.13
2022-12-26T18:31:38.020Z,3.65
2022-12-26T18:34:05.013Z,3.83
2022-12-26T18:36:34.804Z,6.10
2022-12-26T18:41:28.854Z,6.40
2022-12-26T18:43:58.253Z,10.20
2022-12-26T18:46:27.869Z,3.25
2022-12-26T18:48:56.829Z,7.90
2022-12-26T18:51:25.487Z,3.83
2022-12-26T18:53:52.618Z,9.48
2022-12-26T18:56:20.944Z,6.28
2022-12-26T18:58:53.921Z,4.45
2022-12-26T19:01:26.365Z,6.72
2022-12-26T19:03:54.117Z,3.92
2022-12-26T19:06:23.849Z,7.65
2022-12-26T19:08:50.618Z,9.70
2022-12-26T19:11:17.623Z,7.03
2022-12-26T19:13:44.763Z,7.78
2022-12-26T19:16:12.303Z,7.25
2022-12-26T19:18:40.557Z,7.80
2022-12-26T19:21:12.311Z,4.57
2022-12-26T19:23:39.436Z,8.43
2022-12-26T19:26:10.792Z,4.22
2022-12-26T19:28:38.231Z,5.13
2022-12-26T19:31:09.676Z,11.15
2022-12-26T19:33:37.023Z,10.48
2022-12-26T19:36:06.511Z,6.35
2022-12-26T19:38:33.459Z,12.68
2022-12-26T19:41:04.677Z,9.60
2022-12-26T19:43:31.881Z,8.90
2022-12-26T19:46:00.171Z,11.65
2022-12-26T19:48:27.239Z,3.90
2022-12-26T19:50:54.110Z,9.10
2022-12-26T19:53:22.427Z,3.70
2022-12-26T19:55:49.275Z,9.50
2022-12-26T19:58:16.222Z,3.45
2022-12-26T20:00:43.960Z,10.32
2022-12-26T20:03:10.898Z,5.75
2022-12-26T20:05:38.067Z,3.58
2022-12-26T20:08:05.560Z,5.78
2022-12-26T20:10:33.858Z,4.82
2022-12-26T20:13:00.887Z,10.43
2022-12-26T20:15:27.837Z,11.18
2022-12-26T20:17:54.656Z,6.53
2022-12-26T20:20:22.245Z,9.43
2022-12-26T20:22:53.030Z,6.85
2022-12-26T20:25:20.256Z,3.72
2022-12-26T20:27:48.475Z,5.35
2022-12-26T20:30:15.271Z,9.15
2022-12-26T20:32:46.700Z,17.90
2022-12-26T20:35:13.792Z,9.07
2022-12-26T20:37:40.745Z,13.23
2022-12-26T20:40:08.497Z,9.45
2022-12-26T20:42:35.370Z,7.28
2022-12-26T20:45:04.008Z,3.72
2022-12-26T20:47:30.923Z,7.75
2022-12-26T20:49:57.745Z,11.40
2022-12-26T20:52:24.554Z,5.50
2022-12-26T20:54:51.345Z,6.65
2022-12-26T20:57:18.412Z,7.13
2022-12-26T20:59:45.348Z,6.45
2022-12-26T21:02:13.781Z,4.03
2022-12-26T21:04:41.345Z,5.65
2022-12-26T21:07:08.210Z,11.63
2022-12-26T21:09:34.971Z,5.88
2022-12-26T21:12:01.943Z,3.83
2022-12-26T21:14:29.117Z,8.35
2022-12-26T21:16:58.734Z,10.07
2022-12-26T21:19:29.402Z,7.40
2022-12-26T21:21:56.860Z,4.55
2022-12-26T21:24:27.280Z,3.50
2022-12-26T21:26:55.080Z,6.18
2022-12-26T21:29:24.485Z,8.98
2022-12-26T21:31:52.321Z,7.53
2022-12-26T21:34:20.795Z,7.03
2022-12-26T21:37:12.223Z,5.22
2022-12-26T21:39:39.196Z,7.47
2022-12-26T21:42:07.592Z,8.85
2022-12-26T21:44:35.940Z,5.00
2022-12-26T21:47:03.416Z,9.35
2022-12-26T21:49:30.200Z,8.40
2022-12-26T21:51:58.348Z,3.00
2022-12-26T21:54:48.637Z,6.65
2022-12-26T21:57:16.379Z,8.68
2022-12-26T21:59:58.609Z,7.72
2022-12-26T22:02:46.363Z,8.50
2022-12-26T22:05:14.155Z,7.72
2022-12-26T22:07:42.639Z,5.90
2022-12-26T22:10:30.142Z,11.32
2022-12-26T22:19:56.694Z,11.38
2022-12-26T22:22:23.592Z,6.00
2022-12-26T22:24:51.845Z,9.60
2022-12-26T22:27:18.696Z,8.02
2022-12-26T22:29:45.570Z,8.25
2022-12-26T22:32:12.453Z,7.90
2022-12-26T22:34:39.214Z,4.57
2022-12-26T22:37:06.067Z,8.75
2022-12-26T22:39:32.910Z,10.02
2022-12-26T22:46:26.926Z,4.57
2022-12-26T22:48:53.938Z,6.05
2022-12-26T22:51:23.032Z,5.95
2022-12-26T22:53:53.250Z,9.40
2022-12-26T22:56:20.066Z,8.68
2022-12-26T22:58:46.982Z,11.00
2022-12-26T23:01:15.076Z,6.32
2022-12-26T23:03:43.443Z,8.43
2022-12-26T23:06:19.778Z,6.07
2022-12-26T23:08:47.238Z,4.03
2022-12-26T23:11:14.813Z,5.05
2022-12-26T23:13:42.186Z,7.05
2022-12-26T23:16:19.571Z,18.55
2022-12-26T23:19:11.328Z,9.18
2022-12-26T23:21:40.337Z,3.35
2022-12-26T23:24:09.121Z,8.32
2022-12-26T23:26:36.141Z,6.78
2022-12-26T23:29:21.916Z,5.78
2022-12-26T23:31:48.834Z,4.10
2022-12-26T23:34:17.271Z,9.65
2022-12-26T23:36:44.082Z,9.50
2022-12-26T23:39:10.937Z,8.05
2022-12-26T23:41:37.767Z,11.13
2022-12-26T23:44:04.912Z,6.05
2022-12-26T23:46:31.731Z,7.72
2022-12-26T23:48:58.566Z,10.98
2022-12-26T23:51:26.955Z,10.00
2022-12-26T23:53:53.975Z,5.68
2022-12-26T23:56:20.767Z,8.32
2022-12-26T23:58:47.528Z,6.15
